Beemer, Nebraska
Current Conditions -  °F | °C
As of 6:35 PM on Saturday 25 Oct 2014 (Local Time) from KLCG Reporting Station
Clear Clear  
Wind Chill: 57°   Ceiling: Unl
Heat Index: 57°   Visibility: 10mi
Dew Point: 38°   Wind: 6mph
Humidity: 48%   Direction: 80°E
Pressure: 30.05"   Gusts: NA
Location:  41.93°N, 96.81°W
Report Text: KLCG 252335Z AUTO 08005KT 10SM CLR 14/03 A3005 RMK AO2 T01410031
Loading
Personal Weather Stations






























Interactive Weather Map
Tropical Storm Tracking
New forecast layout! Learn more

10-Day Weather Forecast

Advertisements
Track Severe Weather on mobile